sensor_id;sensor_type;location;lat;lon;timestamp;P1;durP1;ratioP1;P2;durP2;ratioP2
17235;SDS011;8734;59.272;17.780;2023-06-05T00:00:42;11.47;;;6.53;;
17235;SDS011;8734;59.272;17.780;2023-06-05T00:03:10;15.57;;;7.30;;
17235;SDS011;8734;59.272;17.780;2023-06-05T00:05:38;17.33;;;8.03;;
17235;SDS011;8734;59.272;17.780;2023-06-05T00:08:07;23.13;;;15.23;;
17235;SDS011;8734;59.272;17.780;2023-06-05T00:10:35;16.80;;;11.20;;
17235;SDS011;8734;59.272;17.780;2023-06-05T00:13:03;18.23;;;9.53;;
17235;SDS011;8734;59.272;17.780;2023-06-05T00:15:32;26.93;;;10.23;;
17235;SDS011;8734;59.272;17.780;2023-06-05T00:18:03;21.43;;;17.70;;
17235;SDS011;8734;59.272;17.780;2023-06-05T00:20:32;21.97;;;7.07;;
17235;SDS011;8734;59.272;17.780;2023-06-05T00:23:00;37.67;;;24.43;;
17235;SDS011;8734;59.272;17.780;2023-06-05T00:25:28;34.00;;;17.37;;
17235;SDS011;8734;59.272;17.780;2023-06-05T00:27:57;22.47;;;5.73;;
17235;SDS011;8734;59.272;17.780;2023-06-05T00:30:25;22.60;;;10.73;;
17235;SDS011;8734;59.272;17.780;2023-06-05T00:32:54;36.83;;;12.07;;
17235;SDS011;8734;59.272;17.780;2023-06-05T00:35:24;33.27;;;11.83;;
17235;SDS011;8734;59.272;17.780;2023-06-05T00:37:52;109.40;;;50.20;;
17235;SDS011;8734;59.272;17.780;2023-06-05T00:40:21;41.00;;;15.87;;
17235;SDS011;8734;59.272;17.780;2023-06-05T00:42:49;37.13;;;16.10;;
17235;SDS011;8734;59.272;17.780;2023-06-05T00:45:18;26.57;;;16.90;;
17235;SDS011;8734;59.272;17.780;2023-06-05T00:47:46;25.40;;;10.33;;
17235;SDS011;8734;59.272;17.780;2023-06-05T00:50:14;32.60;;;20.80;;
17235;SDS011;8734;59.272;17.780;2023-06-05T00:52:49;35.13;;;14.83;;
17235;SDS011;8734;59.272;17.780;2023-06-05T00:55:19;44.70;;;21.20;;
17235;SDS011;8734;59.272;17.780;2023-06-05T00:57:47;11.10;;;8.03;;
17235;SDS011;8734;59.272;17.780;2023-06-05T01:00:15;20.27;;;10.23;;
17235;SDS011;8734;59.272;17.780;2023-06-05T01:02:45;38.40;;;15.67;;
17235;SDS011;8734;59.272;17.780;2023-06-05T01:05:14;18.87;;;4.00;;
17235;SDS011;8734;59.272;17.780;2023-06-05T01:07:43;33.40;;;13.53;;
17235;SDS011;8734;59.272;17.780;2023-06-05T01:10:15;50.37;;;21.07;;
17235;SDS011;8734;59.272;17.780;2023-06-05T01:12:46;22.13;;;12.43;;
17235;SDS011;8734;59.272;17.780;2023-06-05T01:15:21;21.70;;;11.40;;
17235;SDS011;8734;59.272;17.780;2023-06-05T01:17:55;24.97;;;10.90;;
17235;SDS011;8734;59.272;17.780;2023-06-05T01:20:31;28.10;;;10.87;;
17235;SDS011;8734;59.272;17.780;2023-06-05T01:23:02;23.17;;;9.37;;
17235;SDS011;8734;59.272;17.780;2023-06-05T01:25:31;22.93;;;7.43;;
17235;SDS011;8734;59.272;17.780;2023-06-05T01:28:03;26.43;;;14.10;;
17235;SDS011;8734;59.272;17.780;2023-06-05T01:30:36;36.90;;;12.67;;
17235;SDS011;8734;59.272;17.780;2023-06-05T01:33:11;20.70;;;7.40;;
17235;SDS011;8734;59.272;17.780;2023-06-05T01:35:43;44.93;;;37.17;;
17235;SDS011;8734;59.272;17.780;2023-06-05T01:38:19;22.37;;;9.77;;
17235;SDS011;8734;59.272;17.780;2023-06-05T01:40:50;31.27;;;18.57;;
17235;SDS011;8734;59.272;17.780;2023-06-05T01:43:19;42.13;;;19.43;;
17235;SDS011;8734;59.272;17.780;2023-06-05T01:45:47;30.40;;;14.80;;
17235;SDS011;8734;59.272;17.780;2023-06-05T01:48:17;17.83;;;13.23;;
17235;SDS011;8734;59.272;17.780;2023-06-05T01:50:45;33.43;;;17.13;;
17235;SDS011;8734;59.272;17.780;2023-06-05T01:53:13;21.20;;;10.67;;
17235;SDS011;8734;59.272;17.780;2023-06-05T01:55:45;35.23;;;15.40;;
17235;SDS011;8734;59.272;17.780;2023-06-05T01:58:14;21.50;;;9.80;;
17235;SDS011;8734;59.272;17.780;2023-06-05T02:00:43;30.63;;;10.30;;
17235;SDS011;8734;59.272;17.780;2023-06-05T02:03:11;31.17;;;10.67;;
17235;SDS011;8734;59.272;17.780;2023-06-05T02:05:42;23.83;;;7.27;;
17235;SDS011;8734;59.272;17.780;2023-06-05T02:08:10;44.47;;;23.43;;
17235;SDS011;8734;59.272;17.780;2023-06-05T02:10:40;16.93;;;11.93;;
17235;SDS011;8734;59.272;17.780;2023-06-05T02:13:12;29.47;;;11.70;;
17235;SDS011;8734;59.272;17.780;2023-06-05T02:15:41;43.37;;;20.27;;
17235;SDS011;8734;59.272;17.780;2023-06-05T02:18:11;36.37;;;18.63;;
17235;SDS011;8734;59.272;17.780;2023-06-05T02:20:41;30.50;;;13.97;;
17235;SDS011;8734;59.272;17.780;2023-06-05T02:23:10;37.47;;;21.50;;
17235;SDS011;8734;59.272;17.780;2023-06-05T02:25:38;29.80;;;10.97;;
17235;SDS011;8734;59.272;17.780;2023-06-05T02:28:06;33.77;;;21.73;;
17235;SDS011;8734;59.272;17.780;2023-06-05T02:30:36;26.23;;;11.33;;
17235;SDS011;8734;59.272;17.780;2023-06-05T02:33:04;48.50;;;19.33;;
17235;SDS011;8734;59.272;17.780;2023-06-05T02:35:35;30.07;;;15.83;;
17235;SDS011;8734;59.272;17.780;2023-06-05T02:38:03;33.27;;;14.97;;
17235;SDS011;8734;59.272;17.780;2023-06-05T02:40:33;41.20;;;14.90;;
17235;SDS011;8734;59.272;17.780;2023-06-05T02:43:01;25.57;;;10.17;;
17235;SDS011;8734;59.272;17.780;2023-06-05T02:45:33;22.57;;;5.40;;
17235;SDS011;8734;59.272;17.780;2023-06-05T02:48:02;18.37;;;10.33;;
17235;SDS011;8734;59.272;17.780;2023-06-05T02:50:31;59.50;;;23.53;;
17235;SDS011;8734;59.272;17.780;2023-06-05T02:52:59;57.57;;;29.97;;
17235;SDS011;8734;59.272;17.780;2023-06-05T02:55:28;50.83;;;21.40;;
17235;SDS011;8734;59.272;17.780;2023-06-05T02:57:56;43.40;;;15.87;;
17235;SDS011;8734;59.272;17.780;2023-06-05T03:00:24;76.27;;;30.57;;
17235;SDS011;8734;59.272;17.780;2023-06-05T03:02:53;35.87;;;21.50;;
17235;SDS011;8734;59.272;17.780;2023-06-05T03:05:23;40.37;;;23.20;;
17235;SDS011;8734;59.272;17.780;2023-06-05T03:07:52;39.23;;;14.13;;
17235;SDS011;8734;59.272;17.780;2023-06-05T03:10:21;25.37;;;10.93;;
17235;SDS011;8734;59.272;17.780;2023-06-05T03:12:49;37.80;;;16.50;;
17235;SDS011;8734;59.272;17.780;2023-06-05T03:15:18;45.60;;;14.60;;
17235;SDS011;8734;59.272;17.780;2023-06-05T03:17:46;52.07;;;12.23;;
17235;SDS011;8734;59.272;17.780;2023-06-05T03:20:16;41.33;;;12.93;;
17235;SDS011;8734;59.272;17.780;2023-06-05T03:22:47;39.60;;;15.13;;
17235;SDS011;8734;59.272;17.780;2023-06-05T03:25:15;74.27;;;38.67;;
17235;SDS011;8734;59.272;17.780;2023-06-05T03:27:44;31.13;;;9.50;;
17235;SDS011;8734;59.272;17.780;2023-06-05T03:30:13;39.70;;;21.37;;
17235;SDS011;8734;59.272;17.780;2023-06-05T03:32:43;47.07;;;29.10;;
17235;SDS011;8734;59.272;17.780;2023-06-05T03:35:11;72.57;;;31.17;;
17235;SDS011;8734;59.272;17.780;2023-06-05T03:37:40;34.27;;;22.67;;
17235;SDS011;8734;59.272;17.780;2023-06-05T03:40:10;39.33;;;14.30;;
17235;SDS011;8734;59.272;17.780;2023-06-05T03:42:39;31.83;;;10.63;;
17235;SDS011;8734;59.272;17.780;2023-06-05T03:45:08;35.57;;;17.70;;
17235;SDS011;8734;59.272;17.780;2023-06-05T03:47:37;47.57;;;14.03;;
17235;SDS011;8734;59.272;17.780;2023-06-05T03:50:05;53.57;;;15.93;;
17235;SDS011;8734;59.272;17.780;2023-06-05T03:52:34;31.93;;;9.83;;
17235;SDS011;8734;59.272;17.780;2023-06-05T03:55:04;45.00;;;15.13;;
17235;SDS011;8734;59.272;17.780;2023-06-05T03:57:35;32.60;;;10.93;;
17235;SDS011;8734;59.272;17.780;2023-06-05T04:00:05;53.77;;;21.33;;
17235;SDS011;8734;59.272;17.780;2023-06-05T04:02:36;4.27;;;3.50;;
17235;SDS011;8734;59.272;17.780;2023-06-05T04:05:05;40.17;;;24.57;;
17235;SDS011;8734;59.272;17.780;2023-06-05T04:07:38;38.57;;;15.33;;
17235;SDS011;8734;59.272;17.780;2023-06-05T04:10:06;37.67;;;12.07;;
17235;SDS011;8734;59.272;17.780;2023-06-05T04:12:36;37.70;;;14.03;;
17235;SDS011;8734;59.272;17.780;2023-06-05T04:15:06;29.93;;;11.90;;
17235;SDS011;8734;59.272;17.780;2023-06-05T04:17:37;23.83;;;5.60;;
17235;SDS011;8734;59.272;17.780;2023-06-05T04:20:06;45.90;;;16.97;;
17235;SDS011;8734;59.272;17.780;2023-06-05T04:22:40;55.47;;;28.57;;
17235;SDS011;8734;59.272;17.780;2023-06-05T04:25:09;39.70;;;21.17;;
17235;SDS011;8734;59.272;17.780;2023-06-05T04:27:40;102.60;;;51.00;;
17235;SDS011;8734;59.272;17.780;2023-06-05T04:30:10;33.97;;;12.13;;
17235;SDS011;8734;59.272;17.780;2023-06-05T04:32:40;24.00;;;11.73;;
17235;SDS011;8734;59.272;17.780;2023-06-05T04:35:09;16.63;;;8.03;;
17235;SDS011;8734;59.272;17.780;2023-06-05T04:37:38;23.43;;;12.60;;
17235;SDS011;8734;59.272;17.780;2023-06-05T04:40:07;27.03;;;6.00;;
17235;SDS011;8734;59.272;17.780;2023-06-05T04:42:36;31.00;;;9.90;;
17235;SDS011;8734;59.272;17.780;2023-06-05T04:45:07;79.60;;;24.27;;
17235;SDS011;8734;59.272;17.780;2023-06-05T04:47:36;47.30;;;21.17;;
17235;SDS011;8734;59.272;17.780;2023-06-05T04:50:05;80.97;;;25.27;;
17235;SDS011;8734;59.272;17.780;2023-06-05T04:52:34;38.70;;;16.97;;
17235;SDS011;8734;59.272;17.780;2023-06-05T04:55:07;32.70;;;15.83;;
17235;SDS011;8734;59.272;17.780;2023-06-05T04:57:35;63.20;;;21.37;;
17235;SDS011;8734;59.272;17.780;2023-06-05T05:00:04;36.97;;;14.53;;
17235;SDS011;8734;59.272;17.780;2023-06-05T05:02:35;50.27;;;19.70;;
17235;SDS011;8734;59.272;17.780;2023-06-05T05:05:04;18.37;;;8.03;;
17235;SDS011;8734;59.272;17.780;2023-06-05T05:07:33;35.10;;;17.13;;
17235;SDS011;8734;59.272;17.780;2023-06-05T05:10:02;38.80;;;12.30;;
17235;SDS011;8734;59.272;17.780;2023-06-05T05:12:30;94.83;;;30.70;;
17235;SDS011;8734;59.272;17.780;2023-06-05T05:14:58;108.80;;;36.67;;
17235;SDS011;8734;59.272;17.780;2023-06-05T05:17:27;36.27;;;13.23;;
17235;SDS011;8734;59.272;17.780;2023-06-05T05:19:58;25.13;;;6.70;;
17235;SDS011;8734;59.272;17.780;2023-06-05T05:22:26;43.13;;;18.43;;
17235;SDS011;8734;59.272;17.780;2023-06-05T05:24:55;47.63;;;25.07;;
17235;SDS011;8734;59.272;17.780;2023-06-05T05:27:23;82.83;;;30.63;;
17235;SDS011;8734;59.272;17.780;2023-06-05T05:29:51;39.87;;;12.80;;
17235;SDS011;8734;59.272;17.780;2023-06-05T05:32:20;48.23;;;15.23;;
17235;SDS011;8734;59.272;17.780;2023-06-05T05:34:48;105.10;;;44.27;;
17235;SDS011;8734;59.272;17.780;2023-06-05T05:37:19;52.57;;;17.90;;
17235;SDS011;8734;59.272;17.780;2023-06-05T05:39:47;49.97;;;18.43;;
17235;SDS011;8734;59.272;17.780;2023-06-05T05:42:15;145.30;;;43.60;;
17235;SDS011;8734;59.272;17.780;2023-06-05T05:44:44;105.80;;;26.43;;
17235;SDS011;8734;59.272;17.780;2023-06-05T05:47:13;54.37;;;31.70;;
17235;SDS011;8734;59.272;17.780;2023-06-05T05:49:41;73.10;;;18.73;;
17235;SDS011;8734;59.272;17.780;2023-06-05T05:52:09;47.00;;;15.50;;
17235;SDS011;8734;59.272;17.780;2023-06-05T05:54:39;52.40;;;20.83;;
17235;SDS011;8734;59.272;17.780;2023-06-05T05:57:07;64.73;;;28.37;;
17235;SDS011;8734;59.272;17.780;2023-06-05T05:59:36;47.80;;;20.47;;
17235;SDS011;8734;59.272;17.780;2023-06-05T06:02:04;39.10;;;14.33;;
17235;SDS011;8734;59.272;17.780;2023-06-05T06:04:36;75.57;;;23.80;;
17235;SDS011;8734;59.272;17.780;2023-06-05T06:07:04;65.07;;;20.23;;
17235;SDS011;8734;59.272;17.780;2023-06-05T06:09:33;42.70;;;18.30;;
17235;SDS011;8734;59.272;17.780;2023-06-05T06:12:02;39.13;;;17.83;;
17235;SDS011;8734;59.272;17.780;2023-06-05T06:14:32;37.80;;;8.87;;
17235;SDS011;8734;59.272;17.780;2023-06-05T06:17:01;33.90;;;14.20;;
17235;SDS011;8734;59.272;17.780;2023-06-05T06:19:32;26.27;;;12.73;;
17235;SDS011;8734;59.272;17.780;2023-06-05T06:22:01;19.30;;;6.67;;
17235;SDS011;8734;59.272;17.780;2023-06-05T06:24:29;12.03;;;6.30;;
17235;SDS011;8734;59.272;17.780;2023-06-05T06:26:57;9.83;;;4.10;;
17235;SDS011;8734;59.272;17.780;2023-06-05T06:29:28;8.40;;;4.60;;
17235;SDS011;8734;59.272;17.780;2023-06-05T06:31:58;6.43;;;3.80;;
17235;SDS011;8734;59.272;17.780;2023-06-05T06:34:26;9.60;;;4.20;;
17235;SDS011;8734;59.272;17.780;2023-06-05T06:36:55;11.43;;;3.03;;
17235;SDS011;8734;59.272;17.780;2023-06-05T06:39:24;3.40;;;2.20;;
17235;SDS011;8734;59.272;17.780;2023-06-05T06:41:52;10.07;;;3.13;;
17235;SDS011;8734;59.272;17.780;2023-06-05T06:44:21;9.97;;;2.63;;
17235;SDS011;8734;59.272;17.780;2023-06-05T06:46:51;9.13;;;4.63;;
17235;SDS011;8734;59.272;17.780;2023-06-05T06:49:20;10.53;;;4.43;;
17235;SDS011;8734;59.272;17.780;2023-06-05T06:51:48;10.00;;;3.50;;
17235;SDS011;8734;59.272;17.780;2023-06-05T06:54:16;25.87;;;3.67;;
17235;SDS011;8734;59.272;17.780;2023-06-05T06:56:45;26.57;;;4.87;;
17235;SDS011;8734;59.272;17.780;2023-06-05T06:59:13;24.70;;;3.90;;
17235;SDS011;8734;59.272;17.780;2023-06-05T07:01:42;18.97;;;6.63;;
17235;SDS011;8734;59.272;17.780;2023-06-05T07:04:15;18.67;;;4.53;;
17235;SDS011;8734;59.272;17.780;2023-06-05T07:06:46;19.93;;;4.63;;
17235;SDS011;8734;59.272;17.780;2023-06-05T07:09:15;15.10;;;6.17;;
17235;SDS011;8734;59.272;17.780;2023-06-05T07:11:43;15.57;;;3.40;;
17235;SDS011;8734;59.272;17.780;2023-06-05T07:14:12;13.77;;;4.00;;
17235;SDS011;8734;59.272;17.780;2023-06-05T07:16:40;16.23;;;4.23;;
17235;SDS011;8734;59.272;17.780;2023-06-05T07:19:09;17.17;;;2.83;;
17235;SDS011;8734;59.272;17.780;2023-06-05T07:21:39;20.87;;;3.80;;
17235;SDS011;8734;59.272;17.780;2023-06-05T07:24:07;20.47;;;5.03;;
17235;SDS011;8734;59.272;17.780;2023-06-05T07:26:35;23.13;;;3.30;;
17235;SDS011;8734;59.272;17.780;2023-06-05T07:29:04;7.53;;;1.53;;
17235;SDS011;8734;59.272;17.780;2023-06-05T07:31:32;12.27;;;4.70;;
17235;SDS011;8734;59.272;17.780;2023-06-05T07:34:01;21.07;;;3.30;;
17235;SDS011;8734;59.272;17.780;2023-06-05T07:36:29;18.50;;;4.40;;
17235;SDS011;8734;59.272;17.780;2023-06-05T07:38:59;19.30;;;3.83;;
17235;SDS011;8734;59.272;17.780;2023-06-05T07:41:27;20.87;;;4.63;;
17235;SDS011;8734;59.272;17.780;2023-06-05T07:43:55;12.70;;;3.33;;
17235;SDS011;8734;59.272;17.780;2023-06-05T07:46:24;13.63;;;3.33;;
17235;SDS011;8734;59.272;17.780;2023-06-05T07:48:53;0.88;;;0.68;;
17235;SDS011;8734;59.272;17.780;2023-06-05T07:51:21;13.55;;;5.78;;
17235;SDS011;8734;59.272;17.780;2023-06-05T07:53:49;0.50;;;0.50;;
17235;SDS011;8734;59.272;17.780;2023-06-05T07:56:19;16.38;;;3.53;;
17235;SDS011;8734;59.272;17.780;2023-06-05T07:58:50;0.65;;;0.60;;
17235;SDS011;8734;59.272;17.780;2023-06-05T08:01:18;17.73;;;2.60;;
17235;SDS011;8734;59.272;17.780;2023-06-05T08:03:47;15.48;;;4.07;;
17235;SDS011;8734;59.272;17.780;2023-06-05T08:06:15;0.95;;;0.57;;
17235;SDS011;8734;59.272;17.780;2023-06-05T08:08:44;19.80;;;3.15;;
17235;SDS011;8734;59.272;17.780;2023-06-05T08:11:12;1.02;;;0.60;;
17235;SDS011;8734;59.272;17.780;2023-06-05T08:13:42;20.08;;;4.20;;
17235;SDS011;8734;59.272;17.780;2023-06-05T08:16:11;21.55;;;3.80;;
17235;SDS011;8734;59.272;17.780;2023-06-05T08:18:41;1.17;;;0.60;;
17235;SDS011;8734;59.272;17.780;2023-06-05T08:21:10;24.17;;;3.50;;
17235;SDS011;8734;59.272;17.780;2023-06-05T08:23:39;20.33;;;4.35;;
17235;SDS011;8734;59.272;17.780;2023-06-05T08:26:07;1.63;;;0.68;;
17235;SDS011;8734;59.272;17.780;2023-06-05T08:28:38;0.60;;;0.47;;
17235;SDS011;8734;59.272;17.780;2023-06-05T08:31:08;20.58;;;2.90;;
17235;SDS011;8734;59.272;17.780;2023-06-05T08:33:37;0.95;;;0.50;;
17235;SDS011;8734;59.272;17.780;2023-06-05T08:36:06;21.58;;;3.58;;
17235;SDS011;8734;59.272;17.780;2023-06-05T08:38:34;18.10;;;3.00;;
17235;SDS011;8734;59.272;17.780;2023-06-05T08:41:07;1.15;;;0.60;;
17235;SDS011;8734;59.272;17.780;2023-06-05T08:43:37;1.35;;;0.70;;
17235;SDS011;8734;59.272;17.780;2023-06-05T08:46:09;2.40;;;0.70;;
17235;SDS011;8734;59.272;17.780;2023-06-05T08:48:41;2.28;;;0.73;;
17235;SDS011;8734;59.272;17.780;2023-06-05T08:51:12;21.60;;;2.92;;
17235;SDS011;8734;59.272;17.780;2023-06-05T08:53:42;5.57;;;1.08;;
17235;SDS011;8734;59.272;17.780;2023-06-05T08:56:14;4.70;;;0.75;;
17235;SDS011;8734;59.272;17.780;2023-06-05T08:58:43;0.60;;;0.60;;
17235;SDS011;8734;59.272;17.780;2023-06-05T09:01:13;1.08;;;0.98;;
17235;SDS011;8734;59.272;17.780;2023-06-05T09:03:43;21.92;;;2.35;;
17235;SDS011;8734;59.272;17.780;2023-06-05T09:06:11;19.42;;;3.08;;
17235;SDS011;8734;59.272;17.780;2023-06-05T09:08:39;15.25;;;1.42;;
17235;SDS011;8734;59.272;17.780;2023-06-05T09:11:24;3.45;;;1.00;;
17235;SDS011;8734;59.272;17.780;2023-06-05T09:13:54;0.85;;;0.70;;
17235;SDS011;8734;59.272;17.780;2023-06-05T09:16:33;21.88;;;2.88;;
17235;SDS011;8734;59.272;17.780;2023-06-05T09:19:04;26.13;;;3.42;;
17235;SDS011;8734;59.272;17.780;2023-06-05T09:21:34;21.98;;;4.30;;
17235;SDS011;8734;59.272;17.780;2023-06-05T09:24:12;19.42;;;2.08;;
17235;SDS011;8734;59.272;17.780;2023-06-05T09:26:48;1.08;;;0.60;;
17235;SDS011;8734;59.272;17.780;2023-06-05T09:29:21;21.00;;;3.22;;
17235;SDS011;8734;59.272;17.780;2023-06-05T09:31:53;4.15;;;0.93;;
17235;SDS011;8734;59.272;17.780;2023-06-05T09:34:22;5.10;;;0.68;;
17235;SDS011;8734;59.272;17.780;2023-06-05T09:36:51;0.93;;;0.77;;
17235;SDS011;8734;59.272;17.780;2023-06-05T09:39:21;3.63;;;1.13;;
17235;SDS011;8734;59.272;17.780;2023-06-05T09:41:51;1.02;;;0.80;;
17235;SDS011;8734;59.272;17.780;2023-06-05T09:44:20;1.13;;;0.98;;
17235;SDS011;8734;59.272;17.780;2023-06-05T09:46:54;0.60;;;0.60;;
17235;SDS011;8734;59.272;17.780;2023-06-05T09:49:25;15.07;;;2.63;;
17235;SDS011;8734;59.272;17.780;2023-06-05T09:51:55;8.10;;;1.98;;
17235;SDS011;8734;59.272;17.780;2023-06-05T09:54:25;15.35;;;1.70;;
17235;SDS011;8734;59.272;17.780;2023-06-05T09:56:58;1.92;;;0.95;;
17235;SDS011;8734;59.272;17.780;2023-06-05T09:59:28;0.70;;;0.57;;
17235;SDS011;8734;59.272;17.780;2023-06-05T10:02:01;10.85;;;2.92;;
17235;SDS011;8734;59.272;17.780;2023-06-05T10:04:33;12.77;;;7.40;;
17235;SDS011;8734;59.272;17.780;2023-06-05T10:07:08;10.68;;;3.42;;
17235;SDS011;8734;59.272;17.780;2023-06-05T10:09:36;1.52;;;1.10;;
17235;SDS011;8734;59.272;17.780;2023-06-05T10:12:06;1.00;;;0.90;;
17235;SDS011;8734;59.272;17.780;2023-06-05T10:14:35;12.15;;;3.08;;
17235;SDS011;8734;59.272;17.780;2023-06-05T10:17:05;2.42;;;1.00;;
17235;SDS011;8734;59.272;17.780;2023-06-05T10:19:34;1.40;;;1.00;;
17235;SDS011;8734;59.272;17.780;2023-06-05T10:22:03;0.77;;;0.70;;
17235;SDS011;8734;59.272;17.780;2023-06-05T10:24:33;13.50;;;3.10;;
17235;SDS011;8734;59.272;17.780;2023-06-05T10:30:23;1.73;;;1.33;;
17235;SDS011;8734;59.272;17.780;2023-06-05T10:33:04;4.70;;;1.00;;
17235;SDS011;8734;59.272;17.780;2023-06-05T10:35:46;14.40;;;2.30;;
17235;SDS011;8734;59.272;17.780;2023-06-05T10:38:19;12.75;;;3.72;;
17235;SDS011;8734;59.272;17.780;2023-06-05T10:40:51;0.82;;;0.70;;
17235;SDS011;8734;59.272;17.780;2023-06-05T10:43:27;2.60;;;0.65;;
17235;SDS011;8734;59.272;17.780;2023-06-05T10:45:57;1.20;;;1.00;;
17235;SDS011;8734;59.272;17.780;2023-06-05T10:51:42;1.23;;;0.77;;
17235;SDS011;8734;59.272;17.780;2023-06-05T10:54:13;0.90;;;0.80;;
17235;SDS011;8734;59.272;17.780;2023-06-05T10:56:56;0.80;;;0.70;;
17235;SDS011;8734;59.272;17.780;2023-06-05T10:59:27;12.95;;;2.75;;
17235;SDS011;8734;59.272;17.780;2023-06-05T11:05:04;1.10;;;0.90;;
17235;SDS011;8734;59.272;17.780;2023-06-05T11:07:34;1.38;;;0.77;;
17235;SDS011;8734;59.272;17.780;2023-06-05T11:10:04;1.75;;;1.10;;
17235;SDS011;8734;59.272;17.780;2023-06-05T11:15:35;7.95;;;1.77;;
17235;SDS011;8734;59.272;17.780;2023-06-05T11:18:30;3.65;;;1.10;;
17235;SDS011;8734;59.272;17.780;2023-06-05T11:21:02;0.88;;;0.75;;
17235;SDS011;8734;59.272;17.780;2023-06-05T11:23:30;11.85;;;2.53;;
17235;SDS011;8734;59.272;17.780;2023-06-05T11:29:00;3.70;;;0.90;;
17235;SDS011;8734;59.272;17.780;2023-06-05T11:31:29;1.30;;;0.93;;
17235;SDS011;8734;59.272;17.780;2023-06-05T11:33:59;3.80;;;0.80;;
17235;SDS011;8734;59.272;17.780;2023-06-05T11:36:29;2.67;;;0.65;;
17235;SDS011;8734;59.272;17.780;2023-06-05T11:38:59;1.45;;;0.80;;
17235;SDS011;8734;59.272;17.780;2023-06-05T11:41:28;1.13;;;0.80;;
17235;SDS011;8734;59.272;17.780;2023-06-05T11:43:56;18.27;;;1.85;;
17235;SDS011;8734;59.272;17.780;2023-06-05T11:46:35;13.80;;;2.30;;
17235;SDS011;8734;59.272;17.780;2023-06-05T11:49:04;34.05;;;12.95;;
17235;SDS011;8734;59.272;17.780;2023-06-05T11:51:34;12.32;;;2.10;;
17235;SDS011;8734;59.272;17.780;2023-06-05T11:54:03;1.65;;;0.68;;
17235;SDS011;8734;59.272;17.780;2023-06-05T11:56:34;0.75;;;0.70;;
17235;SDS011;8734;59.272;17.780;2023-06-05T11:59:12;1.27;;;0.90;;
17235;SDS011;8734;59.272;17.780;2023-06-05T12:01:41;2.22;;;0.60;;
17235;SDS011;8734;59.272;17.780;2023-06-05T12:04:12;0.93;;;0.80;;
17235;SDS011;8734;59.272;17.780;2023-06-05T12:06:44;1.75;;;0.80;;
17235;SDS011;8734;59.272;17.780;2023-06-05T12:09:14;1.30;;;0.88;;
17235;SDS011;8734;59.272;17.780;2023-06-05T12:11:43;1.95;;;1.10;;
17235;SDS011;8734;59.272;17.780;2023-06-05T12:14:12;1.00;;;0.90;;
17235;SDS011;8734;59.272;17.780;2023-06-05T12:16:41;1.00;;;0.90;;
17235;SDS011;8734;59.272;17.780;2023-06-05T12:19:11;1.63;;;1.27;;
17235;SDS011;8734;59.272;17.780;2023-06-05T12:21:42;3.58;;;0.85;;
17235;SDS011;8734;59.272;17.780;2023-06-05T12:24:13;3.90;;;1.10;;
17235;SDS011;8734;59.272;17.780;2023-06-05T12:26:48;1.05;;;0.80;;
17235;SDS011;8734;59.272;17.780;2023-06-05T12:29:20;3.20;;;0.75;;
17235;SDS011;8734;59.272;17.780;2023-06-05T12:31:50;1.10;;;0.73;;
17235;SDS011;8734;59.272;17.780;2023-06-05T12:37:26;3.08;;;0.80;;
17235;SDS011;8734;59.272;17.780;2023-06-05T12:39:58;1.23;;;0.80;;
17235;SDS011;8734;59.272;17.780;2023-06-05T12:42:27;1.48;;;0.75;;
17235;SDS011;8734;59.272;17.780;2023-06-05T12:45:02;1.00;;;0.90;;
17235;SDS011;8734;59.272;17.780;2023-06-05T12:47:31;12.73;;;2.30;;
17235;SDS011;8734;59.272;17.780;2023-06-05T12:50:00;1.13;;;0.85;;
17235;SDS011;8734;59.272;17.780;2023-06-05T12:52:31;1.77;;;0.80;;
17235;SDS011;8734;59.272;17.780;2023-06-05T12:55:00;1.17;;;0.90;;
17235;SDS011;8734;59.272;17.780;2023-06-05T12:57:30;12.70;;;2.75;;
17235;SDS011;8734;59.272;17.780;2023-06-05T12:59:59;2.67;;;1.00;;
17235;SDS011;8734;59.272;17.780;2023-06-05T13:02:31;21.08;;;2.55;;
17235;SDS011;8734;59.272;17.780;2023-06-05T13:05:03;1.92;;;0.80;;
17235;SDS011;8734;59.272;17.780;2023-06-05T13:07:34;25.15;;;2.35;;
17235;SDS011;8734;59.272;17.780;2023-06-05T13:10:04;87.78;;;4.88;;
17235;SDS011;8734;59.272;17.780;2023-06-05T13:12:33;2.10;;;0.77;;
17235;SDS011;8734;59.272;17.780;2023-06-05T13:15:02;4.03;;;0.90;;
17235;SDS011;8734;59.272;17.780;2023-06-05T13:17:33;30.08;;;2.08;;
17235;SDS011;8734;59.272;17.780;2023-06-05T13:20:02;3.10;;;0.85;;
17235;SDS011;8734;59.272;17.780;2023-06-05T13:22:35;26.75;;;2.75;;
17235;SDS011;8734;59.272;17.780;2023-06-05T13:25:04;14.17;;;1.63;;
17235;SDS011;8734;59.272;17.780;2023-06-05T13:27:33;51.73;;;5.70;;
17235;SDS011;8734;59.272;17.780;2023-06-05T13:30:02;1.92;;;0.90;;
17235;SDS011;8734;59.272;17.780;2023-06-05T13:32:32;1.50;;;0.80;;
17235;SDS011;8734;59.272;17.780;2023-06-05T13:35:00;1.83;;;0.87;;
17235;SDS011;8734;59.272;17.780;2023-06-05T13:37:28;16.43;;;1.97;;
17235;SDS011;8734;59.272;17.780;2023-06-05T13:39:58;2.00;;;0.90;;
17235;SDS011;8734;59.272;17.780;2023-06-05T13:42:27;26.93;;;2.07;;
17235;SDS011;8734;59.272;17.780;2023-06-05T13:44:55;26.87;;;6.60;;
17235;SDS011;8734;59.272;17.780;2023-06-05T13:47:23;27.57;;;2.50;;
17235;SDS011;8734;59.272;17.780;2023-06-05T13:49:51;1.63;;;0.60;;
17235;SDS011;8734;59.272;17.780;2023-06-05T13:52:20;46.40;;;4.13;;
17235;SDS011;8734;59.272;17.780;2023-06-05T13:54:49;25.03;;;3.60;;
17235;SDS011;8734;59.272;17.780;2023-06-05T13:57:18;104.77;;;11.90;;
17235;SDS011;8734;59.272;17.780;2023-06-05T13:59:47;35.17;;;2.43;;
17235;SDS011;8734;59.272;17.780;2023-06-05T14:02:16;1.87;;;0.70;;
17235;SDS011;8734;59.272;17.780;2023-06-05T14:04:44;50.10;;;4.10;;
17235;SDS011;8734;59.272;17.780;2023-06-05T14:07:13;14.80;;;2.30;;
17235;SDS011;8734;59.272;17.780;2023-06-05T14:09:41;163.20;;;8.93;;
17235;SDS011;8734;59.272;17.780;2023-06-05T14:12:10;17.50;;;2.73;;
17235;SDS011;8734;59.272;17.780;2023-06-05T14:14:39;15.50;;;2.70;;
17235;SDS011;8734;59.272;17.780;2023-06-05T14:17:08;12.43;;;2.40;;
17235;SDS011;8734;59.272;17.780;2023-06-05T14:19:36;12.50;;;2.00;;
17235;SDS011;8734;59.272;17.780;2023-06-05T14:22:04;1.13;;;0.73;;
17235;SDS011;8734;59.272;17.780;2023-06-05T14:24:34;11.67;;;2.80;;
17235;SDS011;8734;59.272;17.780;2023-06-05T14:27:03;0.70;;;0.60;;
17235;SDS011;8734;59.272;17.780;2023-06-05T14:29:31;15.27;;;2.63;;
17235;SDS011;8734;59.272;17.780;2023-06-05T14:32:03;26.93;;;1.93;;
17235;SDS011;8734;59.272;17.780;2023-06-05T14:34:32;2.43;;;0.80;;
17235;SDS011;8734;59.272;17.780;2023-06-05T14:37:00;0.90;;;0.70;;
17235;SDS011;8734;59.272;17.780;2023-06-05T14:39:28;14.67;;;2.20;;
17235;SDS011;8734;59.272;17.780;2023-06-05T14:41:56;19.63;;;2.47;;
17235;SDS011;8734;59.272;17.780;2023-06-05T14:44:25;14.77;;;2.60;;
17235;SDS011;8734;59.272;17.780;2023-06-05T14:46:53;1.13;;;0.80;;
17235;SDS011;8734;59.272;17.780;2023-06-05T14:49:24;55.73;;;6.73;;
17235;SDS011;8734;59.272;17.780;2023-06-05T14:51:52;2.37;;;0.80;;
17235;SDS011;8734;59.272;17.780;2023-06-05T14:54:21;1.10;;;0.70;;
17235;SDS011;8734;59.272;17.780;2023-06-05T14:56:49;1.70;;;0.73;;
17235;SDS011;8734;59.272;17.780;2023-06-05T14:59:17;1.60;;;0.80;;
17235;SDS011;8734;59.272;17.780;2023-06-05T15:01:48;3.07;;;0.77;;
17235;SDS011;8734;59.272;17.780;2023-06-05T15:04:17;6.50;;;1.40;;
17235;SDS011;8734;59.272;17.780;2023-06-05T15:06:46;18.53;;;2.20;;